sensor_id;sensor_type;location;lat;lon;timestamp;temperature;humidity
6054;DHT22;3055;50.886;14.814;2024-01-06T00:01:19;5.20;99.90
6054;DHT22;3055;50.886;14.814;2024-01-06T00:03:46;5.20;99.90
6054;DHT22;3055;50.886;14.814;2024-01-06T00:06:14;5.20;99.90
6054;DHT22;3055;50.886;14.814;2024-01-06T00:08:41;5.10;99.90
6054;DHT22;3055;50.886;14.814;2024-01-06T00:11:09;5.20;99.90
6054;DHT22;3055;50.886;14.814;2024-01-06T00:13:38;5.10;99.90
6054;DHT22;3055;50.886;14.814;2024-01-06T00:16:05;5.10;99.90
6054;DHT22;3055;50.886;14.814;2024-01-06T00:18:32;5.00;99.90
6054;DHT22;3055;50.886;14.814;2024-01-06T00:20:59;5.00;99.90
6054;DHT22;3055;50.886;14.814;2024-01-06T00:23:27;5.00;99.90
6054;DHT22;3055;50.886;14.814;2024-01-06T00:25:54;5.00;99.90
6054;DHT22;3055;50.886;14.814;2024-01-06T00:28:21;5.00;99.90
6054;DHT22;3055;50.886;14.814;2024-01-06T00:30:50;5.00;99.90
6054;DHT22;3055;50.886;14.814;2024-01-06T00:33:17;4.90;99.90
6054;DHT22;3055;50.886;14.814;2024-01-06T00:35:44;5.00;99.90
6054;DHT22;3055;50.886;14.814;2024-01-06T00:38:12;4.90;99.90
6054;DHT22;3055;50.886;14.814;2024-01-06T00:40:39;4.90;99.90
6054;DHT22;3055;50.886;14.814;2024-01-06T00:43:06;4.90;99.90
6054;DHT22;3055;50.886;14.814;2024-01-06T00:45:33;4.90;99.90
6054;DHT22;3055;50.886;14.814;2024-01-06T00:48:02;4.80;99.90
6054;DHT22;3055;50.886;14.814;2024-01-06T00:50:29;4.80;99.90
6054;DHT22;3055;50.886;14.814;2024-01-06T00:52:57;4.80;99.90
6054;DHT22;3055;50.886;14.814;2024-01-06T00:55:24;4.60;99.90
6054;DHT22;3055;50.886;14.814;2024-01-06T00:57:51;4.60;99.90
6054;DHT22;3055;50.886;14.814;2024-01-06T01:00:19;4.50;99.90
6054;DHT22;3055;50.886;14.814;2024-01-06T01:02:46;4.50;99.90
6054;DHT22;3055;50.886;14.814;2024-01-06T01:05:15;4.50;99.90
6054;DHT22;3055;50.886;14.814;2024-01-06T01:07:42;4.40;99.90
6054;DHT22;3055;50.886;14.814;2024-01-06T01:10:13;4.40;99.90
6054;DHT22;3055;50.886;14.814;2024-01-06T01:12:40;4.50;99.90
6054;DHT22;3055;50.886;14.814;2024-01-06T01:15:08;4.60;99.90
6054;DHT22;3055;50.886;14.814;2024-01-06T01:17:35;4.60;99.90
6054;DHT22;3055;50.886;14.814;2024-01-06T01:20:03;4.70;99.90
6054;DHT22;3055;50.886;14.814;2024-01-06T01:22:32;4.70;99.90
6054;DHT22;3055;50.886;14.814;2024-01-06T01:25:01;4.70;99.90
6054;DHT22;3055;50.886;14.814;2024-01-06T01:27:31;4.80;99.90
6054;DHT22;3055;50.886;14.814;2024-01-06T01:29:59;4.90;99.90
6054;DHT22;3055;50.886;14.814;2024-01-06T01:32:26;4.90;99.90
6054;DHT22;3055;50.886;14.814;2024-01-06T01:34:54;4.80;99.90
6054;DHT22;3055;50.886;14.814;2024-01-06T01:37:21;4.80;99.90
6054;DHT22;3055;50.886;14.814;2024-01-06T01:39:49;4.80;99.90
6054;DHT22;3055;50.886;14.814;2024-01-06T01:42:16;4.70;99.90
6054;DHT22;3055;50.886;14.814;2024-01-06T01:44:44;4.90;99.90
6054;DHT22;3055;50.886;14.814;2024-01-06T01:47:11;4.90;99.90
6054;DHT22;3055;50.886;14.814;2024-01-06T01:49:40;4.80;99.90
6054;DHT22;3055;50.886;14.814;2024-01-06T01:52:08;4.80;99.90
6054;DHT22;3055;50.886;14.814;2024-01-06T01:54:35;4.80;99.90
6054;DHT22;3055;50.886;14.814;2024-01-06T01:57:04;4.90;99.90
6054;DHT22;3055;50.886;14.814;2024-01-06T01:59:32;4.90;99.90
6054;DHT22;3055;50.886;14.814;2024-01-06T02:02:02;4.80;99.90
6054;DHT22;3055;50.886;14.814;2024-01-06T02:04:29;4.80;99.90
6054;DHT22;3055;50.886;14.814;2024-01-06T02:06:56;4.70;99.90
6054;DHT22;3055;50.886;14.814;2024-01-06T02:09:24;4.70;99.90
6054;DHT22;3055;50.886;14.814;2024-01-06T02:11:56;4.70;99.90
6054;DHT22;3055;50.886;14.814;2024-01-06T02:14:25;4.60;99.90
6054;DHT22;3055;50.886;14.814;2024-01-06T02:16:52;4.60;99.90
6054;DHT22;3055;50.886;14.814;2024-01-06T02:19:20;4.60;99.90
6054;DHT22;3055;50.886;14.814;2024-01-06T02:21:52;4.60;99.90
6054;DHT22;3055;50.886;14.814;2024-01-06T02:24:20;4.50;99.90
6054;DHT22;3055;50.886;14.814;2024-01-06T02:26:47;4.50;99.90
6054;DHT22;3055;50.886;14.814;2024-01-06T02:29:15;4.50;99.90
6054;DHT22;3055;50.886;14.814;2024-01-06T02:31:42;4.50;99.90
6054;DHT22;3055;50.886;14.814;2024-01-06T02:34:09;4.50;99.90
6054;DHT22;3055;50.886;14.814;2024-01-06T02:36:37;4.40;99.90
6054;DHT22;3055;50.886;14.814;2024-01-06T02:39:05;4.40;99.90
6054;DHT22;3055;50.886;14.814;2024-01-06T02:41:32;4.40;99.90
6054;DHT22;3055;50.886;14.814;2024-01-06T02:44:00;4.40;99.90
6054;DHT22;3055;50.886;14.814;2024-01-06T02:46:28;4.40;99.90
6054;DHT22;3055;50.886;14.814;2024-01-06T02:48:56;4.40;99.90
6054;DHT22;3055;50.886;14.814;2024-01-06T02:51:23;4.30;99.90
6054;DHT22;3055;50.886;14.814;2024-01-06T02:53:50;4.30;99.90
6054;DHT22;3055;50.886;14.814;2024-01-06T02:56:19;4.40;99.90
6054;DHT22;3055;50.886;14.814;2024-01-06T02:58:47;4.40;99.90
6054;DHT22;3055;50.886;14.814;2024-01-06T03:01:14;4.40;99.90
6054;DHT22;3055;50.886;14.814;2024-01-06T03:03:41;4.40;99.90
6054;DHT22;3055;50.886;14.814;2024-01-06T03:06:08;4.30;99.90
6054;DHT22;3055;50.886;14.814;2024-01-06T03:08:36;4.30;99.90
6054;DHT22;3055;50.886;14.814;2024-01-06T03:11:03;4.30;99.90
6054;DHT22;3055;50.886;14.814;2024-01-06T03:13:32;4.30;99.90
6054;DHT22;3055;50.886;14.814;2024-01-06T03:16:03;4.30;99.90
6054;DHT22;3055;50.886;14.814;2024-01-06T03:18:31;4.20;99.90
6054;DHT22;3055;50.886;14.814;2024-01-06T03:20:58;4.20;99.90
6054;DHT22;3055;50.886;14.814;2024-01-06T03:23:26;4.30;99.90
6054;DHT22;3055;50.886;14.814;2024-01-06T03:25:53;4.30;99.90
6054;DHT22;3055;50.886;14.814;2024-01-06T03:28:20;4.20;99.90
6054;DHT22;3055;50.886;14.814;2024-01-06T03:30:49;4.20;99.90
6054;DHT22;3055;50.886;14.814;2024-01-06T03:33:16;4.20;99.90
6054;DHT22;3055;50.886;14.814;2024-01-06T03:35:43;4.20;99.90
6054;DHT22;3055;50.886;14.814;2024-01-06T03:38:09;4.20;99.90
6054;DHT22;3055;50.886;14.814;2024-01-06T03:40:37;4.30;99.90
6054;DHT22;3055;50.886;14.814;2024-01-06T03:43:04;4.30;99.90
6054;DHT22;3055;50.886;14.814;2024-01-06T03:45:31;4.30;99.90
6054;DHT22;3055;50.886;14.814;2024-01-06T03:48:01;4.40;99.90
6054;DHT22;3055;50.886;14.814;2024-01-06T03:50:29;4.40;99.90
6054;DHT22;3055;50.886;14.814;2024-01-06T03:52:56;4.30;99.90
6054;DHT22;3055;50.886;14.814;2024-01-06T03:55:23;4.20;99.90
6054;DHT22;3055;50.886;14.814;2024-01-06T03:57:51;4.20;99.90
6054;DHT22;3055;50.886;14.814;2024-01-06T04:00:18;4.20;99.90
6054;DHT22;3055;50.886;14.814;2024-01-06T04:02:46;4.10;99.90
6054;DHT22;3055;50.886;14.814;2024-01-06T04:05:14;4.10;99.90
6054;DHT22;3055;50.886;14.814;2024-01-06T04:07:42;4.20;99.90
6054;DHT22;3055;50.886;14.814;2024-01-06T04:10:09;4.20;99.90
6054;DHT22;3055;50.886;14.814;2024-01-06T04:12:36;4.20;99.90
6054;DHT22;3055;50.886;14.814;2024-01-06T04:15:04;4.10;99.90
6054;DHT22;3055;50.886;14.814;2024-01-06T04:17:31;4.10;99.90
6054;DHT22;3055;50.886;14.814;2024-01-06T04:19:58;4.20;99.90
6054;DHT22;3055;50.886;14.814;2024-01-06T04:22:27;4.10;99.90
6054;DHT22;3055;50.886;14.814;2024-01-06T04:24:54;4.00;99.90
6054;DHT22;3055;50.886;14.814;2024-01-06T04:27:21;3.90;99.90
6054;DHT22;3055;50.886;14.814;2024-01-06T04:29:48;4.00;99.90
6054;DHT22;3055;50.886;14.814;2024-01-06T04:32:18;4.10;99.90
6054;DHT22;3055;50.886;14.814;2024-01-06T04:34:46;4.10;99.90
6054;DHT22;3055;50.886;14.814;2024-01-06T04:37:13;4.00;99.90
6054;DHT22;3055;50.886;14.814;2024-01-06T04:39:42;3.90;99.90
6054;DHT22;3055;50.886;14.814;2024-01-06T04:42:09;3.90;99.90
6054;DHT22;3055;50.886;14.814;2024-01-06T04:44:36;3.90;99.90
6054;DHT22;3055;50.886;14.814;2024-01-06T04:47:04;3.80;99.90
6054;DHT22;3055;50.886;14.814;2024-01-06T04:49:31;3.80;99.90
6054;DHT22;3055;50.886;14.814;2024-01-06T04:51:59;3.80;99.90
6054;DHT22;3055;50.886;14.814;2024-01-06T04:54:26;3.80;99.90
6054;DHT22;3055;50.886;14.814;2024-01-06T04:56:55;3.80;99.90
6054;DHT22;3055;50.886;14.814;2024-01-06T04:59:22;3.90;99.90
6054;DHT22;3055;50.886;14.814;2024-01-06T05:01:50;3.90;99.90
6054;DHT22;3055;50.886;14.814;2024-01-06T05:04:18;3.90;99.90
6054;DHT22;3055;50.886;14.814;2024-01-06T05:06:45;3.90;99.90
6054;DHT22;3055;50.886;14.814;2024-01-06T05:09:12;3.70;99.90
6054;DHT22;3055;50.886;14.814;2024-01-06T05:11:39;3.70;99.90
6054;DHT22;3055;50.886;14.814;2024-01-06T05:14:08;3.50;99.90
6054;DHT22;3055;50.886;14.814;2024-01-06T05:16:35;3.40;99.90
6054;DHT22;3055;50.886;14.814;2024-01-06T05:19:02;3.30;99.90
6054;DHT22;3055;50.886;14.814;2024-01-06T05:21:29;3.30;99.90
6054;DHT22;3055;50.886;14.814;2024-01-06T05:23:57;3.40;99.90
6054;DHT22;3055;50.886;14.814;2024-01-06T05:26:24;3.20;99.90
6054;DHT22;3055;50.886;14.814;2024-01-06T05:28:51;3.20;99.90
6054;DHT22;3055;50.886;14.814;2024-01-06T05:31:20;3.10;99.90
6054;DHT22;3055;50.886;14.814;2024-01-06T05:33:47;2.90;99.90
6054;DHT22;3055;50.886;14.814;2024-01-06T05:36:18;2.80;99.90
6054;DHT22;3055;50.886;14.814;2024-01-06T05:38:46;2.70;99.90
6054;DHT22;3055;50.886;14.814;2024-01-06T05:41:13;2.70;99.90
6054;DHT22;3055;50.886;14.814;2024-01-06T05:43:40;2.60;99.90
6054;DHT22;3055;50.886;14.814;2024-01-06T05:46:07;2.60;99.90
6054;DHT22;3055;50.886;14.814;2024-01-06T05:48:37;2.60;99.90
6054;DHT22;3055;50.886;14.814;2024-01-06T05:51:07;2.70;99.90
6054;DHT22;3055;50.886;14.814;2024-01-06T05:53:34;2.70;99.90
6054;DHT22;3055;50.886;14.814;2024-01-06T05:56:03;2.70;99.90
6054;DHT22;3055;50.886;14.814;2024-01-06T05:58:30;2.60;99.90
6054;DHT22;3055;50.886;14.814;2024-01-06T06:00:57;2.60;99.90
6054;DHT22;3055;50.886;14.814;2024-01-06T06:03:24;2.50;99.90
6054;DHT22;3055;50.886;14.814;2024-01-06T06:05:53;2.50;99.90
6054;DHT22;3055;50.886;14.814;2024-01-06T06:08:20;2.50;99.90
6054;DHT22;3055;50.886;14.814;2024-01-06T06:10:48;2.50;99.90
6054;DHT22;3055;50.886;14.814;2024-01-06T06:13:27;2.50;99.90
6054;DHT22;3055;50.886;14.814;2024-01-06T06:15:54;2.50;99.90
6054;DHT22;3055;50.886;14.814;2024-01-06T06:18:22;2.70;99.90
6054;DHT22;3055;50.886;14.814;2024-01-06T06:20:49;2.60;99.90
6054;DHT22;3055;50.886;14.814;2024-01-06T06:23:18;2.60;99.90
6054;DHT22;3055;50.886;14.814;2024-01-06T06:25:46;2.50;99.90
6054;DHT22;3055;50.886;14.814;2024-01-06T06:28:13;2.60;99.90
6054;DHT22;3055;50.886;14.814;2024-01-06T06:30:40;2.70;99.90
6054;DHT22;3055;50.886;14.814;2024-01-06T06:33:08;2.70;99.90
6054;DHT22;3055;50.886;14.814;2024-01-06T06:35:36;2.60;99.90
6054;DHT22;3055;50.886;14.814;2024-01-06T06:38:03;2.60;99.90
6054;DHT22;3055;50.886;14.814;2024-01-06T06:40:32;2.60;99.90
6054;DHT22;3055;50.886;14.814;2024-01-06T06:43:00;2.60;99.90
6054;DHT22;3055;50.886;14.814;2024-01-06T06:45:27;2.60;99.90
6054;DHT22;3055;50.886;14.814;2024-01-06T06:47:54;2.70;99.90
6054;DHT22;3055;50.886;14.814;2024-01-06T06:50:22;2.70;99.90
6054;DHT22;3055;50.886;14.814;2024-01-06T06:52:50;2.70;99.90
6054;DHT22;3055;50.886;14.814;2024-01-06T06:55:18;2.80;99.90
6054;DHT22;3055;50.886;14.814;2024-01-06T06:58:08;2.70;99.90
6054;DHT22;3055;50.886;14.814;2024-01-06T07:00:36;2.80;99.90
6054;DHT22;3055;50.886;14.814;2024-01-06T07:03:04;2.90;99.90
6054;DHT22;3055;50.886;14.814;2024-01-06T07:05:31;2.90;99.90
6054;DHT22;3055;50.886;14.814;2024-01-06T07:08:00;3.00;99.90
6054;DHT22;3055;50.886;14.814;2024-01-06T07:10:28;2.90;99.90
6054;DHT22;3055;50.886;14.814;2024-01-06T07:12:57;2.90;99.90
6054;DHT22;3055;50.886;14.814;2024-01-06T07:15:24;2.90;99.90
6054;DHT22;3055;50.886;14.814;2024-01-06T07:17:51;2.90;99.90
6054;DHT22;3055;50.886;14.814;2024-01-06T07:20:19;3.00;99.90
6054;DHT22;3055;50.886;14.814;2024-01-06T07:22:46;3.00;99.90
6054;DHT22;3055;50.886;14.814;2024-01-06T07:25:13;3.00;99.90
6054;DHT22;3055;50.886;14.814;2024-01-06T07:27:41;3.00;99.90
6054;DHT22;3055;50.886;14.814;2024-01-06T07:30:10;3.00;99.90
6054;DHT22;3055;50.886;14.814;2024-01-06T07:32:38;3.00;99.90
6054;DHT22;3055;50.886;14.814;2024-01-06T07:35:06;3.00;99.90
6054;DHT22;3055;50.886;14.814;2024-01-06T07:37:33;3.00;99.90
6054;DHT22;3055;50.886;14.814;2024-01-06T07:40:00;3.10;99.90
6054;DHT22;3055;50.886;14.814;2024-01-06T07:42:28;3.20;99.90
6054;DHT22;3055;50.886;14.814;2024-01-06T07:44:55;3.10;99.90
6054;DHT22;3055;50.886;14.814;2024-01-06T07:47:24;3.10;99.90
6054;DHT22;3055;50.886;14.814;2024-01-06T07:49:52;3.10;99.90
6054;DHT22;3055;50.886;14.814;2024-01-06T07:52:20;3.10;99.90
6054;DHT22;3055;50.886;14.814;2024-01-06T07:54:47;3.10;99.90
6054;DHT22;3055;50.886;14.814;2024-01-06T07:57:15;3.10;99.90
6054;DHT22;3055;50.886;14.814;2024-01-06T07:59:42;3.10;99.90
6054;DHT22;3055;50.886;14.814;2024-01-06T08:02:09;3.20;99.90
6054;DHT22;3055;50.886;14.814;2024-01-06T08:04:38;3.30;99.90
6054;DHT22;3055;50.886;14.814;2024-01-06T08:07:05;3.30;99.90
6054;DHT22;3055;50.886;14.814;2024-01-06T08:09:33;3.40;99.90
6054;DHT22;3055;50.886;14.814;2024-01-06T08:12:01;3.40;99.90
6054;DHT22;3055;50.886;14.814;2024-01-06T08:14:29;3.50;99.90
6054;DHT22;3055;50.886;14.814;2024-01-06T08:16:56;3.50;99.90
6054;DHT22;3055;50.886;14.814;2024-01-06T08:19:23;3.60;99.90
6054;DHT22;3055;50.886;14.814;2024-01-06T08:21:52;3.60;99.90
6054;DHT22;3055;50.886;14.814;2024-01-06T08:24:20;3.70;99.90
6054;DHT22;3055;50.886;14.814;2024-01-06T08:26:47;3.80;99.90
6054;DHT22;3055;50.886;14.814;2024-01-06T08:29:14;3.90;99.90
6054;DHT22;3055;50.886;14.814;2024-01-06T08:31:42;4.00;99.90
6054;DHT22;3055;50.886;14.814;2024-01-06T08:34:09;4.00;99.90
6054;DHT22;3055;50.886;14.814;2024-01-06T08:36:37;4.10;99.90
6054;DHT22;3055;50.886;14.814;2024-01-06T08:39:05;4.20;99.90
6054;DHT22;3055;50.886;14.814;2024-01-06T08:41:34;4.30;99.90
6054;DHT22;3055;50.886;14.814;2024-01-06T08:44:01;4.30;99.90
6054;DHT22;3055;50.886;14.814;2024-01-06T08:46:28;4.40;99.90
6054;DHT22;3055;50.886;14.814;2024-01-06T08:48:56;4.50;99.90
6054;DHT22;3055;50.886;14.814;2024-01-06T08:51:23;4.50;99.90
6054;DHT22;3055;50.886;14.814;2024-01-06T08:53:52;4.60;99.90
6054;DHT22;3055;50.886;14.814;2024-01-06T08:56:20;4.60;99.90
6054;DHT22;3055;50.886;14.814;2024-01-06T08:58:48;4.70;99.90
6054;DHT22;3055;50.886;14.814;2024-01-06T09:01:15;4.70;99.90
6054;DHT22;3055;50.886;14.814;2024-01-06T09:03:43;4.70;99.90
6054;DHT22;3055;50.886;14.814;2024-01-06T09:06:10;4.80;99.90
6054;DHT22;3055;50.886;14.814;2024-01-06T09:08:37;4.80;99.90
6054;DHT22;3055;50.886;14.814;2024-01-06T09:11:05;4.90;99.90
6054;DHT22;3055;50.886;14.814;2024-01-06T09:13:34;4.90;99.90
6054;DHT22;3055;50.886;14.814;2024-01-06T09:16:02;5.00;99.90
6054;DHT22;3055;50.886;14.814;2024-01-06T09:18:29;5.00;99.90
6054;DHT22;3055;50.886;14.814;2024-01-06T09:20:57;5.10;99.90
6054;DHT22;3055;50.886;14.814;2024-01-06T09:23:25;5.10;99.90
6054;DHT22;3055;50.886;14.814;2024-01-06T09:25:52;5.20;99.90
6054;DHT22;3055;50.886;14.814;2024-01-06T09:28:19;5.30;99.90
6054;DHT22;3055;50.886;14.814;2024-01-06T09:30:53;5.30;99.90
6054;DHT22;3055;50.886;14.814;2024-01-06T09:33:22;5.40;99.90
6054;DHT22;3055;50.886;14.814;2024-01-06T09:35:49;5.50;99.90
6054;DHT22;3055;50.886;14.814;2024-01-06T09:38:16;5.60;99.90
6054;DHT22;3055;50.886;14.814;2024-01-06T09:40:45;5.70;99.90
6054;DHT22;3055;50.886;14.814;2024-01-06T09:43:12;5.70;99.90
6054;DHT22;3055;50.886;14.814;2024-01-06T09:45:40;5.80;99.90
6054;DHT22;3055;50.886;14.814;2024-01-06T09:48:12;5.70;99.90
6054;DHT22;3055;50.886;14.814;2024-01-06T09:50:41;5.80;99.90
6054;DHT22;3055;50.886;14.814;2024-01-06T09:53:11;5.80;99.90
6054;DHT22;3055;50.886;14.814;2024-01-06T09:55:39;5.80;99.90
6054;DHT22;3055;50.886;14.814;2024-01-06T09:58:08;5.90;99.90
6054;DHT22;3055;50.886;14.814;2024-01-06T10:00:36;5.90;99.90
6054;DHT22;3055;50.886;14.814;2024-01-06T10:03:03;5.90;99.90
6054;DHT22;3055;50.886;14.814;2024-01-06T10:05:35;6.00;99.90
6054;DHT22;3055;50.886;14.814;2024-01-06T10:08:02;6.00;99.90
6054;DHT22;3055;50.886;14.814;2024-01-06T10:10:30;6.10;99.90
6054;DHT22;3055;50.886;14.814;2024-01-06T10:12:57;6.10;99.90
6054;DHT22;3055;50.886;14.814;2024-01-06T10:15:25;6.20;99.90
6054;DHT22;3055;50.886;14.814;2024-01-06T10:17:54;6.20;99.90
6054;DHT22;3055;50.886;14.814;2024-01-06T10:20:21;6.20;99.90
6054;DHT22;3055;50.886;14.814;2024-01-06T10:22:51;6.20;99.90
6054;DHT22;3055;50.886;14.814;2024-01-06T10:25:21;6.30;99.90
6054;DHT22;3055;50.886;14.814;2024-01-06T10:27:52;6.40;99.90
6054;DHT22;3055;50.886;14.814;2024-01-06T10:30:21;6.40;99.90
6054;DHT22;3055;50.886;14.814;2024-01-06T10:32:49;6.50;99.90
6054;DHT22;3055;50.886;14.814;2024-01-06T10:35:18;6.60;99.90
6054;DHT22;3055;50.886;14.814;2024-01-06T10:37:45;6.70;99.90
6054;DHT22;3055;50.886;14.814;2024-01-06T10:40:16;6.70;99.90
6054;DHT22;3055;50.886;14.814;2024-01-06T10:42:45;6.60;99.90
6054;DHT22;3055;50.886;14.814;2024-01-06T10:45:13;6.60;99.90
6054;DHT22;3055;50.886;14.814;2024-01-06T10:47:42;6.70;99.90
6054;DHT22;3055;50.886;14.814;2024-01-06T10:50:10;6.70;99.90
6054;DHT22;3055;50.886;14.814;2024-01-06T10:52:39;6.60;99.90
6054;DHT22;3055;50.886;14.814;2024-01-06T10:55:06;6.60;99.90
6054;DHT22;3055;50.886;14.814;2024-01-06T10:57:37;6.50;99.90
6054;DHT22;3055;50.886;14.814;2024-01-06T11:00:07;6.40;99.90
6054;DHT22;3055;50.886;14.814;2024-01-06T11:02:35;6.40;99.90
6054;DHT22;3055;50.886;14.814;2024-01-06T11:05:03;6.30;99.90
6054;DHT22;3055;50.886;14.814;2024-01-06T11:07:34;6.30;99.90
6054;DHT22;3055;50.886;14.814;2024-01-06T11:10:05;6.10;99.90
6054;DHT22;3055;50.886;14.814;2024-01-06T11:12:35;6.10;99.90
6054;DHT22;3055;50.886;14.814;2024-01-06T11:15:03;6.00;99.90
6054;DHT22;3055;50.886;14.814;2024-01-06T11:17:49;6.00;99.90
6054;DHT22;3055;50.886;14.814;2024-01-06T11:20:19;5.90;99.90
6054;DHT22;3055;50.886;14.814;2024-01-06T11:22:47;5.90;99.90
6054;DHT22;3055;50.886;14.814;2024-01-06T11:25:16;5.80;99.90
6054;DHT22;3055;50.886;14.814;2024-01-06T11:27:45;5.70;99.90
6054;DHT22;3055;50.886;14.814;2024-01-06T11:30:20;5.70;99.90
6054;DHT22;3055;50.886;14.814;2024-01-06T11:32:50;5.70;99.90
6054;DHT22;3055;50.886;14.814;2024-01-06T11:35:19;5.60;99.90
6054;DHT22;3055;50.886;14.814;2024-01-06T11:37:57;5.60;99.90
6054;DHT22;3055;50.886;14.814;2024-01-06T11:40:33;5.60;99.90
6054;DHT22;3055;50.886;14.814;2024-01-06T11:43:04;5.60;99.90
6054;DHT22;3055;50.886;14.814;2024-01-06T11:45:32;5.50;99.90
6054;DHT22;3055;50.886;14.814;2024-01-06T11:48:01;5.50;99.90
6054;DHT22;3055;50.886;14.814;2024-01-06T11:50:29;5.60;99.90
6054;DHT22;3055;50.886;14.814;2024-01-06T11:52:56;5.50;99.90
6054;DHT22;3055;50.886;14.814;2024-01-06T11:55:26;5.40;99.90
6054;DHT22;3055;50.886;14.814;2024-01-06T11:57:55;5.30;99.90
6054;DHT22;3055;50.886;14.814;2024-01-06T12:00:24;5.30;99.90
6054;DHT22;3055;50.886;14.814;2024-01-06T12:02:56;5.20;99.90
6054;DHT22;3055;50.886;14.814;2024-01-06T12:05:25;5.10;99.90
6054;DHT22;3055;50.886;14.814;2024-01-06T12:07:56;5.00;99.90
6054;DHT22;3055;50.886;14.814;2024-01-06T12:10:24;5.10;99.90
6054;DHT22;3055;50.886;14.814;2024-01-06T12:12:58;5.10;99.90
6054;DHT22;3055;50.886;14.814;2024-01-06T12:15:28;5.00;99.90
6054;DHT22;3055;50.886;14.814;2024-01-06T12:17:56;5.00;99.90
6054;DHT22;3055;50.886;14.814;2024-01-06T12:20:23;5.00;99.90
6054;DHT22;3055;50.886;14.814;2024-01-06T12:22:52;5.10;99.90
6054;DHT22;3055;50.886;14.814;2024-01-06T12:25:21;5.10;99.90
6054;DHT22;3055;50.886;14.814;2024-01-06T12:27:49;5.10;99.90
6054;DHT22;3055;50.886;14.814;2024-01-06T12:30:19;5.00;99.90
6054;DHT22;3055;50.886;14.814;2024-01-06T12:32:49;5.00;99.90
6054;DHT22;3055;50.886;14.814;2024-01-06T12:35:17;5.00;99.90
6054;DHT22;3055;50.886;14.814;2024-01-06T12:37:45;5.00;99.90
6054;DHT22;3055;50.886;14.814;2024-01-06T12:40:13;5.00;99.90
6054;DHT22;3055;50.886;14.814;2024-01-06T12:42:42;5.00;99.90
6054;DHT22;3055;50.886;14.814;2024-01-06T12:45:10;5.00;99.90
6054;DHT22;3055;50.886;14.814;2024-01-06T12:47:38;5.00;99.90
6054;DHT22;3055;50.886;14.814;2024-01-06T12:50:08;5.00;99.90
6054;DHT22;3055;50.886;14.814;2024-01-06T12:52:36;5.00;99.90
6054;DHT22;3055;50.886;14.814;2024-01-06T12:55:05;5.00;99.90
6054;DHT22;3055;50.886;14.814;2024-01-06T12:57:33;4.90;99.90
6054;DHT22;3055;50.886;14.814;2024-01-06T13:00:01;4.80;99.90
6054;DHT22;3055;50.886;14.814;2024-01-06T13:02:29;4.70;99.90
6054;DHT22;3055;50.886;14.814;2024-01-06T13:04:56;4.60;99.90
6054;DHT22;3055;50.886;14.814;2024-01-06T13:07:25;4.60;99.90
6054;DHT22;3055;50.886;14.814;2024-01-06T13:09:52;4.50;99.90
6054;DHT22;3055;50.886;14.814;2024-01-06T13:12:19;4.50;99.90
6054;DHT22;3055;50.886;14.814;2024-01-06T13:14:47;4.40;99.90
6054;DHT22;3055;50.886;14.814;2024-01-06T13:17:15;4.40;99.90
6054;DHT22;3055;50.886;14.814;2024-01-06T13:19:42;4.40;99.90
6054;DHT22;3055;50.886;14.814;2024-01-06T13:22:09;4.40;99.90
6054;DHT22;3055;50.886;14.814;2024-01-06T13:24:38;4.30;99.90
6054;DHT22;3055;50.886;14.814;2024-01-06T13:27:06;4.30;99.90
6054;DHT22;3055;50.886;14.814;2024-01-06T13:29:34;4.20;99.90
6054;DHT22;3055;50.886;14.814;2024-01-06T13:32:02;4.10;99.90
6054;DHT22;3055;50.886;14.814;2024-01-06T13:34:30;4.00;99.90
6054;DHT22;3055;50.886;14.814;2024-01-06T13:36:58;3.90;99.90
6054;DHT22;3055;50.886;14.814;2024-01-06T13:39:25;4.00;99.90
6054;DHT22;3055;50.886;14.814;2024-01-06T13:41:54;4.00;99.90
6054;DHT22;3055;50.886;14.814;2024-01-06T13:44:21;4.00;99.90
6054;DHT22;3055;50.886;14.814;2024-01-06T13:46:49;3.90;99.90
6054;DHT22;3055;50.886;14.814;2024-01-06T13:49:17;3.90;99.90
6054;DHT22;3055;50.886;14.814;2024-01-06T13:51:44;3.80;99.90
6054;DHT22;3055;50.886;14.814;2024-01-06T13:54:12;3.80;99.90
6054;DHT22;3055;50.886;14.814;2024-01-06T13:56:39;3.70;99.90
6054;DHT22;3055;50.886;14.814;2024-01-06T13:59:08;3.70;99.90
6054;DHT22;3055;50.886;14.814;2024-01-06T14:01:35;3.70;99.90
6054;DHT22;3055;50.886;14.814;2024-01-06T14:04:03;3.70;99.90
6054;DHT22;3055;50.886;14.814;2024-01-06T14:06:31;3.80;99.90
6054;DHT22;3055;50.886;14.814;2024-01-06T14:09:00;3.80;99.90
6054;DHT22;3055;50.886;14.814;2024-01-06T14:11:27;3.80;99.90
6054;DHT22;3055;50.886;14.814;2024-01-06T14:13:57;3.70;99.90
6054;DHT22;3055;50.886;14.814;2024-01-06T14:16:26;3.70;99.90
6054;DHT22;3055;50.886;14.814;2024-01-06T14:18:53;3.70;99.90
6054;DHT22;3055;50.886;14.814;2024-01-06T14:21:20;3.60;99.90
6054;DHT22;3055;50.886;14.814;2024-01-06T14:23:48;3.70;99.90
6054;DHT22;3055;50.886;14.814;2024-01-06T14:26:16;3.60;99.90
6054;DHT22;3055;50.886;14.814;2024-01-06T14:28:45;3.50;99.90
6054;DHT22;3055;50.886;14.814;2024-01-06T14:31:13;3.50;99.90
6054;DHT22;3055;50.886;14.814;2024-01-06T14:33:41;3.60;99.90
6054;DHT22;3055;50.886;14.814;2024-01-06T14:36:08;3.50;99.90
6054;DHT22;3055;50.886;14.814;2024-01-06T14:38:36;3.50;99.90
6054;DHT22;3055;50.886;14.814;2024-01-06T14:41:03;3.40;99.90
6054;DHT22;3055;50.886;14.814;2024-01-06T14:43:31;3.40;99.90
6054;DHT22;3055;50.886;14.814;2024-01-06T14:45:58;3.40;99.90
6054;DHT22;3055;50.886;14.814;2024-01-06T14:48:25;3.40;99.90
6054;DHT22;3055;50.886;14.814;2024-01-06T14:50:54;3.40;99.90
6054;DHT22;3055;50.886;14.814;2024-01-06T14:53:21;3.40;99.90
6054;DHT22;3055;50.886;14.814;2024-01-06T14:55:48;3.30;99.90
6054;DHT22;3055;50.886;14.814;2024-01-06T14:58:15;3.40;99.90
6054;DHT22;3055;50.886;14.814;2024-01-06T15:00:42;3.40;99.90
6054;DHT22;3055;50.886;14.814;2024-01-06T15:03:10;3.30;99.90
6054;DHT22;3055;50.886;14.814;2024-01-06T15:05:37;3.30;99.90
6054;DHT22;3055;50.886;14.814;2024-01-06T15:08:06;3.20;99.90
6054;DHT22;3055;50.886;14.814;2024-01-06T15:10:34;3.20;99.90
6054;DHT22;3055;50.886;14.814;2024-01-06T15:13:01;3.20;99.90
6054;DHT22;3055;50.886;14.814;2024-01-06T15:15:29;3.10;99.90
6054;DHT22;3055;50.886;14.814;2024-01-06T15:17:56;3.10;99.90
6054;DHT22;3055;50.886;14.814;2024-01-06T15:20:23;3.10;99.90
6054;DHT22;3055;50.886;14.814;2024-01-06T15:22:50;3.10;99.90
6054;DHT22;3055;50.886;14.814;2024-01-06T15:25:19;3.10;99.90
6054;DHT22;3055;50.886;14.814;2024-01-06T15:27:46;3.10;99.90
6054;DHT22;3055;50.886;14.814;2024-01-06T15:30:14;3.00;99.90
6054;DHT22;3055;50.886;14.814;2024-01-06T15:32:44;3.00;99.90
6054;DHT22;3055;50.886;14.814;2024-01-06T15:35:11;3.00;99.90
6054;DHT22;3055;50.886;14.814;2024-01-06T15:37:38;2.90;99.90
6054;DHT22;3055;50.886;14.814;2024-01-06T15:40:07;2.90;99.90
6054;DHT22;3055;50.886;14.814;2024-01-06T15:42:36;2.90;99.90
6054;DHT22;3055;50.886;14.814;2024-01-06T15:45:04;2.90;99.90
6054;DHT22;3055;50.886;14.814;2024-01-06T15:47:31;2.80;99.90
6054;DHT22;3055;50.886;14.814;2024-01-06T15:49:59;2.80;99.90
6054;DHT22;3055;50.886;14.814;2024-01-06T15:52:26;2.80;99.90
6054;DHT22;3055;50.886;14.814;2024-01-06T15:54:53;2.70;99.90
6054;DHT22;3055;50.886;14.814;2024-01-06T15:57:22;2.70;99.90
6054;DHT22;3055;50.886;14.814;2024-01-06T15:59:50;2.70;99.90
6054;DHT22;3055;50.886;14.814;2024-01-06T16:02:18;2.70;99.90
6054;DHT22;3055;50.886;14.814;2024-01-06T16:04:46;2.70;99.90
6054;DHT22;3055;50.886;14.814;2024-01-06T16:07:13;2.70;99.90